Time;durP1;ratioP1;P1;durP2;ratioP2;P2;SDS_P1;SDS_P2;PMS_P1;PMS_P2;Temp;Humidity;BMP_temperature;BMP_pressure;BME280_temperature;BME280_humidity;BME280_pressure;Samples;Min_cycle;Max_cycle;Signal;HPM_P1;HPM_P2
2023/05/22 00:00:17;;;;;;;38.63;28.13;;;18.50;99.90;;;;;;5091152;28;20175;-62
2023/05/22 00:02:43;;;;;;;39.83;28.77;;;18.40;99.90;;;;;;5090950;28;20065;-63
2023/05/22 00:05:13;;;;;;;37.10;27.85;;;18.40;99.90;;;;;;5095541;28;20039;-62
2023/05/22 00:07:40;;;;;;;39.88;27.90;;;18.50;99.90;;;;;;5092153;28;20111;-62
2023/05/22 00:10:06;;;;;;;40.28;28.73;;;18.40;99.90;;;;;;5092304;28;20051;-63
2023/05/22 00:12:32;;;;;;;38.95;28.98;;;18.40;99.90;;;;;;5090535;28;20054;-62
2023/05/22 00:14:58;;;;;;;43.03;29.13;;;18.40;99.90;;;;;;5088913;28;20492;-62
2023/05/22 00:17:25;;;;;;;39.08;28.38;;;18.40;99.90;;;;;;5083005;28;20071;-62
2023/05/22 00:19:52;;;;;;;40.40;29.15;;;18.40;99.90;;;;;;5089935;28;20504;-62
2023/05/22 00:22:18;;;;;;;42.90;29.02;;;18.40;99.90;;;;;;5091576;28;20528;-62
2023/05/22 00:24:44;;;;;;;41.85;29.45;;;18.40;99.90;;;;;;5090774;28;20032;-63
2023/05/22 00:27:10;;;;;;;43.00;29.98;;;18.40;99.90;;;;;;5090279;28;20378;-62
2023/05/22 00:29:35;;;;;;;40.90;28.77;;;18.40;99.90;;;;;;5091399;28;20079;-63
2023/05/22 00:32:01;;;;;;;40.63;28.05;;;18.40;99.90;;;;;;5099205;28;20043;-62
2023/05/22 00:34:26;;;;;;;43.92;30.45;;;18.40;99.90;;;;;;5091583;28;20035;-62
2023/05/22 00:36:52;;;;;;;36.97;27.83;;;18.30;99.90;;;;;;5090842;28;20405;-63
2023/05/22 00:39:17;;;;;;;39.38;28.92;;;18.30;99.90;;;;;;5091451;28;20050;-63
2023/05/22 00:41:43;;;;;;;41.10;29.45;;;18.30;99.90;;;;;;5091856;28;20043;-63
2023/05/22 00:44:09;;;;;;;38.75;29.35;;;18.30;99.90;;;;;;5090656;28;20497;-62
2023/05/22 00:46:35;;;;;;;42.20;28.83;;;18.30;99.90;;;;;;5089212;28;20040;-63
2023/05/22 00:49:00;;;;;;;43.00;29.08;;;18.30;99.90;;;;;;5090736;28;20385;-62
2023/05/22 00:51:26;;;;;;;43.42;30.40;;;18.20;99.90;;;;;;5091488;28;20370;-62
2023/05/22 00:53:53;;;;;;;47.25;30.45;;;18.20;99.90;;;;;;5091588;28;20039;-63
2023/05/22 00:56:20;;;;;;;43.88;32.00;;;18.10;99.90;;;;;;5091178;28;20511;-63
2023/05/22 00:58:46;;;;;;;41.78;30.63;;;18.10;99.90;;;;;;5091019;28;20110;-63
2023/05/22 01:01:13;;;;;;;43.78;31.42;;;18.20;99.90;;;;;;5090470;28;20032;-62
2023/05/22 01:03:43;;;;;;;48.25;31.30;;;18.10;99.90;;;;;;5087786;28;20039;-63
2023/05/22 01:06:13;;;;;;;46.80;33.00;;;18.00;99.90;;;;;;5102611;28;20075;-63
2023/05/22 01:08:40;;;;;;;42.78;32.05;;;18.10;99.90;;;;;;5090875;28;20413;-63
2023/05/22 01:11:21;;;;;;;44.25;31.98;;;18.20;99.90;;;;;;5091352;28;20397;-63
2023/05/22 01:13:46;;;;;;;;;;;18.10;99.90;;;;;;5088909;28;20095;-63
2023/05/22 01:16:18;;;;;;;51.38;32.55;;;18.20;99.90;;;;;;5088729;28;20349;-63
2023/05/22 01:19:14;;;;;;;44.60;32.25;;;18.10;99.90;;;;;;5086023;28;20024;-63
2023/05/22 01:22:20;;;;;;;44.13;31.77;;;18.10;99.90;;;;;;5082523;28;20055;-64
2023/05/22 01:25:19;;;;;;;45.70;32.47;;;18.10;99.90;;;;;;5087166;28;20043;-63
2023/05/22 01:27:57;;;;;;;43.65;31.83;;;18.00;99.90;;;;;;5083576;28;20048;-63
2023/05/22 01:30:41;;;;;;;42.20;32.17;;;18.00;99.90;;;;;;5093561;28;20040;-63
2023/05/22 01:33:08;;;;;;;48.00;32.72;;;18.00;99.90;;;;;;5090710;28;20557;-63
2023/05/22 01:35:37;;;;;;;42.70;31.40;;;18.00;99.90;;;;;;5087673;28;20517;-63
2023/05/22 01:38:03;;;;;;;46.40;32.75;;;18.00;99.90;;;;;;5085307;28;20042;-63
2023/05/22 01:40:30;;;;;;;48.55;31.92;;;18.00;99.90;;;;;;5090992;28;20397;-63
2023/05/22 01:42:56;;;;;;;48.28;32.85;;;18.00;99.90;;;;;;5093083;28;20035;-62
2023/05/22 01:45:22;;;;;;;45.50;33.05;;;18.00;99.90;;;;;;5092701;28;20042;-63
2023/05/22 01:47:48;;;;;;;47.50;32.50;;;18.00;99.90;;;;;;5093624;28;20131;-63
2023/05/22 01:50:14;;;;;;;45.78;32.05;;;17.90;99.90;;;;;;5092262;28;20564;-62
2023/05/22 01:52:59;;;;;;;47.10;31.58;;;17.90;99.90;;;;;;5090540;28;20525;-63
2023/05/22 01:55:56;;;;;;;48.25;31.95;;;17.90;99.90;;;;;;5090670;28;20048;-63
2023/05/22 01:58:34;;;;;;;39.95;29.70;;;17.90;99.90;;;;;;5091431;28;20115;-62
2023/05/22 02:01:02;;;;;;;45.00;32.13;;;17.80;99.90;;;;;;5089663;28;20040;-63
2023/05/22 02:03:30;;;;;;;46.35;31.17;;;17.90;99.90;;;;;;5093859;28;20051;-63
2023/05/22 02:06:00;;;;;;;44.22;31.67;;;17.80;99.90;;;;;;5090471;28;20626;-63
2023/05/22 02:08:27;;;;;;;48.55;32.90;;;17.80;99.90;;;;;;5086282;28;20048;-63
2023/05/22 02:10:56;;;;;;;45.00;31.23;;;17.80;99.90;;;;;;5087169;28;20128;-63
2023/05/22 02:13:23;;;;;;;42.63;30.77;;;17.70;99.90;;;;;;5090540;28;20047;-63
2023/05/22 02:15:49;;;;;;;47.95;32.22;;;17.70;99.90;;;;;;5092321;28;20044;-63
2023/05/22 02:18:15;;;;;;;45.72;31.60;;;17.70;99.90;;;;;;5094011;28;20036;-63
2023/05/22 02:20:41;;;;;;;42.42;30.85;;;17.70;99.90;;;;;;5091080;28;20044;-63
2023/05/22 02:23:06;;;;;;;39.17;29.02;;;17.80;99.90;;;;;;5091924;28;20051;-63
2023/05/22 02:25:32;;;;;;;44.80;31.70;;;17.80;99.90;;;;;;5091940;28;20063;-62
2023/05/22 02:27:57;;;;;;;41.15;30.67;;;17.80;99.90;;;;;;5091765;28;20040;-62
2023/05/22 02:30:23;;;;;;;39.55;29.63;;;17.70;99.90;;;;;;5093742;28;20382;-63
2023/05/22 02:32:49;;;;;;;42.50;29.88;;;17.70;99.90;;;;;;5092756;28;20053;-63
2023/05/22 02:35:14;;;;;;;45.13;30.73;;;17.80;99.90;;;;;;5099465;28;20058;-63
2023/05/22 02:37:41;;;;;;;40.90;29.40;;;17.70;99.90;;;;;;5093701;28;20028;-63
2023/05/22 02:40:07;;;;;;;41.60;30.90;;;17.70;99.90;;;;;;5093755;28;20040;-63
2023/05/22 02:42:33;;;;;;;44.40;31.08;;;17.60;99.90;;;;;;5092664;28;20063;-63
2023/05/22 02:44:59;;;;;;;39.50;29.92;;;17.50;99.90;;;;;;5084729;28;20441;-63
2023/05/22 02:47:24;;;;;;;40.83;29.58;;;17.50;99.90;;;;;;5090949;28;20126;-63
2023/05/22 02:49:50;;;;;;;41.92;29.98;;;17.50;99.90;;;;;;5084595;28;20131;-63
2023/05/22 02:52:16;;;;;;;42.70;29.83;;;17.50;99.90;;;;;;5092338;28;20040;-63
2023/05/22 02:54:41;;;;;;;40.25;29.38;;;17.50;99.90;;;;;;5093569;28;20548;-63
2023/05/22 02:57:07;;;;;;;42.22;29.48;;;17.50;99.90;;;;;;5091312;28;20059;-63
2023/05/22 02:59:35;;;;;;;42.13;31.23;;;17.50;99.90;;;;;;5093460;28;20147;-63
2023/05/22 03:02:01;;;;;;;40.20;30.38;;;17.50;99.90;;;;;;5092662;28;20039;-63
2023/05/22 03:04:28;;;;;;;44.90;31.40;;;17.40;99.90;;;;;;5091040;28;20032;-63
2023/05/22 03:06:54;;;;;;;46.65;31.40;;;17.50;99.90;;;;;;5100755;28;20044;-63
2023/05/22 03:09:19;;;;;;;45.97;30.83;;;17.50;99.90;;;;;;5093358;28;20055;-63
2023/05/22 03:11:45;;;;;;;40.30;29.80;;;17.50;99.90;;;;;;5090476;28;20028;-63
2023/05/22 03:14:11;;;;;;;42.63;30.08;;;17.50;99.90;;;;;;5088798;28;20523;-63
2023/05/22 03:16:36;;;;;;;41.35;30.45;;;17.50;99.90;;;;;;5090639;28;20078;-63
2023/05/22 03:19:13;;;;;;;41.65;30.88;;;17.50;99.90;;;;;;5082599;28;20494;-63
2023/05/22 03:21:39;;;;;;;45.55;30.65;;;17.50;99.90;;;;;;5106034;28;20070;-63
2023/05/22 03:24:05;;;;;;;40.70;30.63;;;17.50;99.90;;;;;;5073486;28;20037;-63
2023/05/22 03:26:31;;;;;;;42.75;31.30;;;17.40;99.90;;;;;;5073296;28;20440;-63
2023/05/22 03:28:56;;;;;;;37.63;29.75;;;17.40;99.90;;;;;;5090629;28;20040;-63
2023/05/22 03:31:28;;;;;;;40.25;29.63;;;17.30;99.90;;;;;;5088190;28;20043;-63
2023/05/22 03:33:53;;;;;;;41.90;29.85;;;17.40;99.90;;;;;;5086737;28;20050;-63
2023/05/22 03:36:20;;;;;;;42.58;30.48;;;17.40;99.90;;;;;;5093906;28;20052;-63
2023/05/22 03:38:46;;;;;;;44.15;30.80;;;17.40;99.90;;;;;;5090526;28;20104;-63
2023/05/22 03:41:11;;;;;;;37.72;29.33;;;17.40;99.90;;;;;;5090502;28;20481;-63
2023/05/22 03:43:37;;;;;;;45.53;30.98;;;17.40;99.90;;;;;;5092246;28;20035;-63
2023/05/22 03:46:02;;;;;;;42.38;30.80;;;17.40;99.90;;;;;;5091365;28;20092;-63
2023/05/22 03:48:28;;;;;;;41.25;30.77;;;17.40;99.90;;;;;;5099578;28;21041;-63
2023/05/22 03:50:54;;;;;;;43.53;32.17;;;17.40;99.90;;;;;;5089265;28;20040;-63
2023/05/22 03:53:20;;;;;;;44.53;31.55;;;17.40;99.90;;;;;;5089166;28;20047;-63
2023/05/22 03:55:45;;;;;;;47.03;31.48;;;17.40;99.90;;;;;;5092346;28;20051;-63
2023/05/22 03:58:11;;;;;;;43.85;31.52;;;17.40;99.90;;;;;;5092225;28;20036;-63
2023/05/22 04:00:37;;;;;;;45.25;31.58;;;17.40;99.90;;;;;;5087292;28;20123;-63
2023/05/22 04:03:03;;;;;;;42.42;32.05;;;17.40;99.90;;;;;;5081724;28;20036;-64
2023/05/22 04:05:29;;;;;;;42.20;30.10;;;17.40;99.90;;;;;;5085525;28;20480;-63
2023/05/22 04:07:54;;;;;;;42.42;30.40;;;17.50;99.90;;;;;;5087640;28;20107;-63
2023/05/22 04:10:22;;;;;;;46.60;32.70;;;17.40;99.90;;;;;;5086476;28;20405;-63
2023/05/22 04:12:48;;;;;;;42.85;31.15;;;17.40;99.90;;;;;;5091674;28;20044;-63
2023/05/22 04:15:14;;;;;;;43.15;30.73;;;17.40;99.90;;;;;;5076226;28;20546;-63
2023/05/22 04:17:43;;;;;;;44.70;30.63;;;17.40;99.90;;;;;;5091157;28;20043;-63
2023/05/22 04:20:10;;;;;;;41.85;30.58;;;17.50;99.90;;;;;;5091693;28;20043;-62
2023/05/22 04:22:35;;;;;;;43.05;31.00;;;17.40;99.90;;;;;;5091862;28;20044;-63
2023/05/22 04:25:01;;;;;;;44.95;30.17;;;17.30;99.90;;;;;;5089657;28;20039;-63
2023/05/22 04:27:28;;;;;;;46.97;32.45;;;17.30;99.90;;;;;;5091468;28;20522;-63
2023/05/22 04:29:54;;;;;;;43.40;31.55;;;17.30;99.90;;;;;;5087799;28;20036;-63
2023/05/22 04:32:22;;;;;;;42.80;30.45;;;17.30;99.90;;;;;;5089142;28;20089;-63
2023/05/22 04:34:51;;;;;;;42.40;31.45;;;17.30;99.90;;;;;;5088322;28;20512;-63
2023/05/22 04:37:18;;;;;;;45.40;31.38;;;17.40;99.90;;;;;;5087517;28;20404;-63
2023/05/22 04:39:45;;;;;;;41.58;31.17;;;17.40;99.90;;;;;;5084508;28;20093;-63
2023/05/22 04:42:14;;;;;;;40.22;30.55;;;17.40;99.90;;;;;;5088708;28;20485;-63
2023/05/22 04:44:40;;;;;;;42.92;29.85;;;17.40;99.90;;;;;;5084097;28;20086;-63
2023/05/22 04:47:10;;;;;;;39.53;29.95;;;17.40;99.90;;;;;;5089883;28;20032;-64
2023/05/22 04:49:42;;;;;;;41.78;29.85;;;17.30;99.90;;;;;;5089734;28;20481;-63
2023/05/22 04:52:10;;;;;;;38.80;28.65;;;17.40;99.90;;;;;;5093781;28;20040;-63
2023/05/22 04:54:36;;;;;;;38.15;29.58;;;17.30;99.90;;;;;;5097761;28;20052;-63
2023/05/22 04:57:03;;;;;;;38.55;30.13;;;17.20;99.90;;;;;;5085188;28;20040;-63
2023/05/22 04:59:32;;;;;;;41.10;30.00;;;17.30;99.90;;;;;;5086829;28;20039;-63
2023/05/22 05:01:58;;;;;;;41.28;30.33;;;17.30;99.90;;;;;;5093030;28;20107;-63
2023/05/22 05:04:23;;;;;;;41.00;29.98;;;17.30;99.90;;;;;;5093316;28;20119;-63
2023/05/22 05:06:51;;;;;;;43.63;31.58;;;17.30;99.90;;;;;;5091630;28;20028;-63
2023/05/22 05:09:17;;;;;;;41.88;29.58;;;17.30;99.90;;;;;;5093781;28;20081;-63
2023/05/22 05:11:42;;;;;;;41.35;29.95;;;17.30;99.90;;;;;;5098924;28;20043;-63
2023/05/22 05:14:08;;;;;;;40.53;30.35;;;17.30;99.90;;;;;;5087293;28;20528;-63
2023/05/22 05:16:34;;;;;;;42.35;30.05;;;17.40;99.90;;;;;;5084564;28;20044;-64
2023/05/22 05:19:00;;;;;;;39.33;29.73;;;17.40;99.90;;;;;;5096403;28;20058;-64
2023/05/22 05:21:26;;;;;;;40.08;28.85;;;17.40;99.90;;;;;;5092713;28;20066;-63
2023/05/22 05:23:52;;;;;;;40.45;29.85;;;17.40;99.90;;;;;;5090478;28;20035;-63
2023/05/22 05:26:20;;;;;;;40.75;29.63;;;17.40;99.90;;;;;;5089866;28;20033;-63
2023/05/22 05:28:46;;;;;;;37.28;29.25;;;17.40;99.90;;;;;;5088780;28;20044;-63
2023/05/22 05:31:11;;;;;;;36.17;28.30;;;17.40;99.90;;;;;;5094298;28;20584;-63
2023/05/22 05:33:37;;;;;;;37.47;29.00;;;17.40;99.90;;;;;;5070459;28;20378;-63
2023/05/22 05:36:03;;;;;;;36.67;28.00;;;17.40;99.90;;;;;;5082063;28;20040;-63
2023/05/22 05:38:28;;;;;;;40.95;28.85;;;17.40;99.90;;;;;;5089462;28;20036;-63
2023/05/22 05:40:54;;;;;;;35.17;26.42;;;17.40;99.90;;;;;;5090554;28;20059;-63
2023/05/22 05:43:20;;;;;;;42.70;26.98;;;17.40;99.90;;;;;;5088985;28;20040;-63
2023/05/22 05:45:46;;;;;;;36.00;26.13;;;17.40;99.90;;;;;;5089264;28;20046;-63
2023/05/22 05:48:11;;;;;;;35.45;26.38;;;17.40;99.90;;;;;;5091007;28;20044;-63
2023/05/22 05:50:37;;;;;;;34.00;27.23;;;17.40;99.90;;;;;;5092178;28;20400;-63
2023/05/22 05:53:03;;;;;;;34.65;25.20;;;17.40;99.90;;;;;;5091035;28;20558;-63
2023/05/22 05:55:30;;;;;;;38.10;26.40;;;17.40;99.90;;;;;;5094249;28;20036;-63
2023/05/22 05:57:55;;;;;;;34.65;25.98;;;17.50;99.90;;;;;;5092140;28;20043;-63
2023/05/22 06:00:21;;;;;;;33.55;26.15;;;17.40;99.90;;;;;;5074680;28;20394;-63
2023/05/22 06:02:47;;;;;;;35.40;25.67;;;17.40;99.90;;;;;;5074387;28;20035;-63
2023/05/22 06:05:14;;;;;;;33.83;25.13;;;17.40;99.90;;;;;;5074053;28;20033;-63
2023/05/22 06:07:39;;;;;;;38.90;26.05;;;17.30;99.90;;;;;;5091536;28;20040;-63
2023/05/22 06:10:07;;;;;;;33.67;26.48;;;17.30;99.90;;;;;;5093462;28;20396;-63
2023/05/22 06:12:32;;;;;;;36.33;25.25;;;17.30;99.90;;;;;;5092947;28;20114;-63
2023/05/22 06:14:58;;;;;;;35.03;26.40;;;17.40;99.90;;;;;;5091899;28;20169;-63
2023/05/22 06:17:23;;;;;;;34.92;25.17;;;17.40;99.90;;;;;;5090846;28;20090;-63
2023/05/22 06:19:49;;;;;;;33.20;25.10;;;17.40;99.90;;;;;;5088033;28;20040;-63
2023/05/22 06:22:15;;;;;;;34.45;25.83;;;17.40;99.90;;;;;;5085865;28;20036;-63
2023/05/22 06:24:41;;;;;;;33.30;25.80;;;17.40;99.90;;;;;;5087077;28;20434;-63
2023/05/22 06:27:06;;;;;;;34.67;26.50;;;17.40;99.90;;;;;;5091635;28;20090;-63
2023/05/22 06:29:32;;;;;;;32.60;25.25;;;17.50;99.90;;;;;;5091830;28;20035;-63
2023/05/22 06:31:57;;;;;;;32.25;25.20;;;17.40;99.90;;;;;;5090482;28;20070;-63
2023/05/22 06:34:24;;;;;;;34.38;26.80;;;17.40;99.90;;;;;;5091978;28;20039;-63
2023/05/22 06:36:50;;;;;;;34.20;25.92;;;17.40;99.90;;;;;;5091643;28;20048;-63
2023/05/22 06:39:16;;;;;;;32.38;24.63;;;17.40;99.90;;;;;;5089536;28;20032;-63
2023/05/22 06:41:42;;;;;;;35.53;26.77;;;17.50;99.90;;;;;;5089798;28;20081;-63
2023/05/22 06:44:08;;;;;;;31.73;24.75;;;17.50;99.90;;;;;;5090978;28;20031;-63
2023/05/22 06:46:34;;;;;;;36.10;26.85;;;17.50;99.90;;;;;;5090964;28;20061;-63
2023/05/22 06:48:59;;;;;;;36.08;26.15;;;17.50;99.90;;;;;;5087448;28;20039;-63
2023/05/22 06:51:25;;;;;;;37.47;26.38;;;17.60;99.90;;;;;;5087987;28;20439;-63
2023/05/22 06:53:51;;;;;;;33.85;26.08;;;17.60;99.90;;;;;;5089478;28;20032;-63
2023/05/22 06:56:17;;;;;;;37.05;26.45;;;17.60;99.90;;;;;;5092892;28;20032;-63
2023/05/22 06:58:43;;;;;;;35.30;26.80;;;17.70;99.90;;;;;;5091257;28;20047;-63
2023/05/22 07:01:09;;;;;;;36.42;26.95;;;17.70;99.90;;;;;;5091593;28;20028;-63
2023/05/22 07:03:34;;;;;;;35.60;27.05;;;17.80;99.90;;;;;;5085251;28;20492;-63
2023/05/22 07:06:01;;;;;;;37.13;27.27;;;17.80;99.90;;;;;;5091151;28;20043;-63
2023/05/22 07:08:26;;;;;;;36.65;27.23;;;17.80;99.90;;;;;;5083456;28;20170;-63
2023/05/22 07:10:52;;;;;;;34.92;26.35;;;17.60;99.90;;;;;;5093187;28;20070;-63
2023/05/22 07:13:18;;;;;;;32.88;27.42;;;17.70;99.90;;;;;;5090213;28;20075;-63
2023/05/22 07:16:18;;;;;;;36.05;27.13;;;17.70;99.90;;;;;;5075140;28;20048;-62
2023/05/22 07:18:44;;;;;;;37.00;27.63;;;17.70;99.90;;;;;;5087094;28;20040;-63
2023/05/22 07:21:11;;;;;;;36.92;26.85;;;17.60;99.90;;;;;;5091431;28;20048;-63
2023/05/22 07:23:37;;;;;;;35.08;27.73;;;17.60;99.90;;;;;;5091498;28;20036;-63
2023/05/22 07:26:02;;;;;;;37.05;27.08;;;17.50;99.90;;;;;;5091625;28;20032;-63
2023/05/22 07:28:29;;;;;;;38.47;28.02;;;17.50;99.90;;;;;;5090399;28;20174;-63
2023/05/22 07:30:56;;;;;;;34.28;25.95;;;17.50;99.90;;;;;;5096165;28;20035;-63
2023/05/22 07:33:21;;;;;;;35.08;26.85;;;17.50;99.90;;;;;;5105777;28;20048;-62
2023/05/22 07:35:47;;;;;;;36.65;28.42;;;17.50;99.90;;;;;;5096567;28;20047;-63
2023/05/22 07:38:12;;;;;;;35.97;25.75;;;17.50;99.90;;;;;;5104348;28;20027;-62
2023/05/22 07:40:38;;;;;;;36.13;26.23;;;17.50;99.90;;;;;;5112489;28;20081;-63
2023/05/22 07:43:04;;;;;;;36.75;27.52;;;17.50;99.90;;;;;;5091665;28;20036;-62
2023/05/22 07:45:29;;;;;;;35.42;26.60;;;17.50;99.90;;;;;;5099389;28;20036;-63
2023/05/22 07:47:57;;;;;;;36.72;26.90;;;17.50;99.90;;;;;;5100701;28;20038;-63
2023/05/22 07:50:25;;;;;;;33.40;26.48;;;17.50;99.90;;;;;;5100502;28;20515;-62
2023/05/22 07:52:51;;;;;;;36.40;26.75;;;17.60;99.90;;;;;;5100158;28;20036;-63
2023/05/22 07:55:16;;;;;;;35.00;26.63;;;17.70;99.90;;;;;;5098412;28;20049;-63
2023/05/22 07:57:42;;;;;;;35.58;26.85;;;17.70;99.90;;;;;;5107615;28;20555;-63
2023/05/22 08:00:08;;;;;;;38.05;26.92;;;17.70;99.90;;;;;;5090835;28;20207;-63
2023/05/22 08:02:35;;;;;;;35.35;27.02;;;17.80;99.90;;;;;;5091626;28;20068;-63
2023/05/22 08:05:03;;;;;;;37.60;25.58;;;17.80;99.90;;;;;;5110249;28;20036;-63
2023/05/22 08:07:28;;;;;;;36.50;26.45;;;17.80;99.90;;;;;;5099772;28;20055;-63
2023/05/22 08:09:54;;;;;;;35.40;25.52;;;17.90;99.90;;;;;;5092264;28;20032;-63
2023/05/22 08:12:19;;;;;;;35.53;25.67;;;17.90;99.90;;;;;;5092167;28;20040;-62
2023/05/22 08:14:45;;;;;;;33.78;25.48;;;17.90;99.90;;;;;;5091643;28;20165;-63
2023/05/22 08:17:10;;;;;;;32.58;24.75;;;17.80;99.90;;;;;;5091754;28;20043;-63
2023/05/22 08:19:36;;;;;;;35.22;26.05;;;17.70;99.90;;;;;;5092007;28;20039;-63
2023/05/22 08:22:02;;;;;;;34.33;24.92;;;17.80;99.90;;;;;;5075356;28;20421;-63
2023/05/22 08:24:29;;;;;;;33.05;23.48;;;17.80;99.90;;;;;;5071724;28;20037;-62
2023/05/22 08:26:57;;;;;;;33.95;23.38;;;17.80;99.90;;;;;;5082795;28;20051;-62
2023/05/22 08:29:23;;;;;;;30.15;22.48;;;17.90;99.90;;;;;;5102307;28;20043;-63
2023/05/22 08:31:48;;;;;;;31.73;22.30;;;17.90;99.90;;;;;;5101073;28;20039;-62
2023/05/22 08:34:14;;;;;;;31.13;22.98;;;17.90;99.90;;;;;;5086596;28;20052;-63
2023/05/22 08:36:40;;;;;;;28.95;22.13;;;17.90;99.90;;;;;;5071778;28;20055;-63
2023/05/22 08:39:07;;;;;;;26.85;20.08;;;18.00;99.90;;;;;;5071708;28;20438;-63
2023/05/22 08:41:33;;;;;;;27.10;20.10;;;18.00;99.90;;;;;;5095671;28;20040;-62
2023/05/22 08:43:58;;;;;;;25.05;19.15;;;18.00;99.90;;;;;;5109722;28;20081;-61
2023/05/22 08:46:28;;;;;;;28.02;19.58;;;18.10;99.90;;;;;;5111551;28;20556;-62
2023/05/22 08:48:57;;;;;;;31.02;19.85;;;18.10;99.90;;;;;;5112332;28;20040;-63
2023/05/22 08:51:27;;;;;;;28.27;19.70;;;18.20;99.90;;;;;;5110378;28;20100;-61
2023/05/22 08:53:55;;;;;;;27.08;20.42;;;18.20;99.90;;;;;;5104193;28;20032;-63
2023/05/22 08:56:21;;;;;;;25.00;20.08;;;18.30;99.90;;;;;;5103172;28;20078;-63
2023/05/22 08:58:48;;;;;;;24.10;19.27;;;18.40;99.90;;;;;;5110798;28;20520;-64
2023/05/22 09:01:15;;;;;;;24.73;19.02;;;18.40;99.90;;;;;;5109960;28;20493;-62
2023/05/22 09:03:41;;;;;;;27.95;18.85;;;18.60;99.90;;;;;;5111921;28;20031;-61
2023/05/22 09:06:09;;;;;;;32.35;18.40;;;18.80;99.90;;;;;;5111585;28;20080;-62
2023/05/22 09:08:35;;;;;;;26.40;18.85;;;18.90;99.90;;;;;;5099271;28;20054;-62
2023/05/22 09:11:01;;;;;;;22.70;18.80;;;19.00;99.90;;;;;;5096310;28;20039;-62
2023/05/22 09:13:27;;;;;;;22.35;17.58;;;19.20;99.90;;;;;;5089881;28;20048;-62
2023/05/22 09:16:13;;;;;;;24.63;18.90;;;19.20;99.90;;;;;;5098406;28;20062;-62
2023/05/22 09:18:40;;;;;;;25.50;18.88;;;19.40;99.90;;;;;;5094599;28;20048;-62
2023/05/22 09:21:06;;;;;;;20.33;16.27;;;19.50;99.90;;;;;;5110503;28;20074;-62
2023/05/22 09:23:32;;;;;;;22.45;18.00;;;19.70;99.90;;;;;;5111450;28;20059;-62
2023/05/22 09:26:00;;;;;;;22.90;18.25;;;19.80;99.90;;;;;;5111758;28;20090;-62
2023/05/22 09:28:31;;;;;;;24.50;17.65;;;20.10;99.90;;;;;;5108504;28;20042;-62
2023/05/22 09:30:57;;;;;;;23.35;17.98;;;20.20;99.90;;;;;;5102945;28;20492;-62
2023/05/22 09:33:23;;;;;;;26.42;17.77;;;20.20;99.90;;;;;;5096494;28;20047;-62
2023/05/22 09:35:51;;;;;;;26.10;18.42;;;20.20;99.90;;;;;;5091378;28;20040;-62
2023/05/22 09:38:17;;;;;;;23.30;17.55;;;20.20;99.90;;;;;;5090974;28;20040;-62
2023/05/22 09:40:43;;;;;;;22.58;16.98;;;20.20;99.90;;;;;;5091151;28;20055;-62
2023/05/22 09:43:09;;;;;;;21.90;17.73;;;20.30;99.90;;;;;;5098301;28;20051;-62
2023/05/22 09:45:35;;;;;;;26.48;17.38;;;20.40;99.90;;;;;;5105762;28;20042;-61
2023/05/22 09:48:04;;;;;;;23.98;18.17;;;20.70;99.90;;;;;;5115442;28;20078;-62
2023/05/22 09:50:38;;;;;;;22.15;16.63;;;20.90;99.90;;;;;;5114057;28;20715;-65
2023/05/22 09:53:04;;;;;;;22.85;16.42;;;21.00;99.90;;;;;;5115083;28;20032;-62
2023/05/22 09:55:30;;;;;;;22.77;16.02;;;21.00;99.90;;;;;;5106155;28;20040;-62
2023/05/22 09:58:01;;;;;;;22.27;16.92;;;21.00;99.90;;;;;;5101446;28;20044;-62
2023/05/22 10:00:28;;;;;;;21.80;16.25;;;21.10;99.90;;;;;;5094488;28;20069;-62
2023/05/22 10:03:08;;;;;;;18.90;16.70;;;21.30;99.90;;;;;;5094359;28;20035;-63
2023/05/22 10:05:36;;;;;;;24.27;17.00;;;21.50;99.90;;;;;;5093134;28;20036;-63
2023/05/22 10:08:09;;;;;;;20.33;16.30;;;21.70;99.90;;;;;;5093468;28;20040;-63
2023/05/22 10:10:36;;;;;;;25.20;17.83;;;21.90;99.90;;;;;;5098602;28;20061;-63
2023/05/22 10:13:06;;;;;;;19.45;16.23;;;21.90;99.90;;;;;;5096518;28;20047;-63
2023/05/22 10:15:33;;;;;;;20.23;16.75;;;21.80;99.90;;;;;;5114663;28;20038;-63
2023/05/22 10:17:59;;;;;;;19.88;16.13;;;21.80;99.90;;;;;;5115014;28;20071;-63
2023/05/22 10:20:26;;;;;;;23.30;17.13;;;21.70;99.90;;;;;;5113613;28;20047;-63
2023/05/22 10:22:53;;;;;;;22.73;16.02;;;21.60;99.90;;;;;;5107331;28;20054;-63
2023/05/22 10:25:20;;;;;;;18.45;14.82;;;21.60;99.90;;;;;;5105465;28;20092;-63
2023/05/22 10:27:48;;;;;;;20.35;15.25;;;21.50;99.90;;;;;;5114380;28;20119;-63
2023/05/22 10:30:35;;;;;;;19.98;16.38;;;21.50;99.90;;;;;;5105337;28;20493;-63
2023/05/22 10:33:16;;;;;;;24.02;15.82;;;21.40;99.90;;;;;;5094239;28;20044;-63
2023/05/22 10:35:46;;;;;;;23.55;16.20;;;21.30;99.90;;;;;;5092437;28;20044;-63
2023/05/22 10:38:39;;;;;;;26.33;16.60;;;21.20;99.90;;;;;;5105192;28;20042;-63
2023/05/22 10:41:06;;;;;;;22.80;15.52;;;21.10;99.90;;;;;;5114117;28;20497;-63
2023/05/22 10:43:31;;;;;;;20.92;15.82;;;21.10;99.90;;;;;;5104847;28;20134;-64
2023/05/22 10:46:02;;;;;;;19.63;15.90;;;21.00;99.90;;;;;;5105812;28;20484;-64
2023/05/22 10:48:37;;;;;;;22.27;16.70;;;21.00;99.90;;;;;;5114124;28;20489;-63
2023/05/22 10:51:03;;;;;;;21.20;15.80;;;21.00;99.90;;;;;;5098444;28;20552;-63
2023/05/22 10:53:31;;;;;;;25.60;16.55;;;21.10;99.90;;;;;;5099377;28;20077;-63
2023/05/22 10:56:01;;;;;;;20.33;15.38;;;21.20;99.90;;;;;;5092211;28;20163;-63
2023/05/22 10:58:37;;;;;;;20.70;15.87;;;21.20;99.90;;;;;;5093979;28;20119;-63
2023/05/22 11:01:17;;;;;;;25.23;16.00;;;21.30;99.90;;;;;;5093268;28;20301;-63
2023/05/22 11:03:55;;;;;;;23.75;16.52;;;21.40;99.90;;;;;;5099067;28;20042;-63
2023/05/22 11:06:46;;;;;;;24.33;17.45;;;21.40;99.90;;;;;;5100936;28;20047;-63
2023/05/22 11:09:18;;;;;;;;;;;21.60;99.90;;;;;;5105635;28;20043;-63
2023/05/22 11:11:45;;;;;;;24.30;16.67;;;21.60;99.90;;;;;;5113600;28;19963;-63
2023/05/22 11:14:12;;;;;;;26.05;16.70;;;21.70;99.90;;;;;;5111732;28;20035;-63
2023/05/22 11:16:38;;;;;;;21.92;16.38;;;21.60;99.90;;;;;;5106678;28;20050;-63
2023/05/22 11:19:08;;;;;;;20.15;16.05;;;21.70;99.90;;;;;;5095339;28;20544;-63
2023/05/22 11:21:44;;;;;;;22.48;17.00;;;21.90;99.90;;;;;;5113627;28;20054;-63
2023/05/22 11:24:11;;;;;;;24.58;16.83;;;22.00;99.90;;;;;;5113278;28;20085;-63
2023/05/22 11:26:41;;;;;;;22.70;17.05;;;22.20;99.90;;;;;;5113585;28;20040;-62
2023/05/22 11:29:07;;;;;;;23.42;17.00;;;22.40;99.90;;;;;;5108560;28;20081;-61
2023/05/22 11:31:35;;;;;;;25.58;17.77;;;22.60;99.90;;;;;;5095931;28;20096;-61
2023/05/22 11:34:01;;;;;;;21.98;16.83;;;22.70;99.90;;;;;;5111118;28;20131;-61
2023/05/22 11:36:27;;;;;;;22.58;18.35;;;22.90;99.90;;;;;;5113307;28;20077;-61
2023/05/22 11:38:58;;;;;;;23.17;17.27;;;23.00;99.90;;;;;;5112930;28;20047;-61
2023/05/22 11:41:23;;;;;;;22.85;18.63;;;23.20;99.90;;;;;;5092434;28;20032;-63
2023/05/22 11:43:49;;;;;;;23.60;17.50;;;23.20;99.90;;;;;;5098586;28;20563;-62
2023/05/22 11:46:15;;;;;;;22.70;17.83;;;23.40;99.90;;;;;;5100971;28;20167;-62
2023/05/22 11:48:41;;;;;;;26.58;18.40;;;23.50;99.90;;;;;;5092726;28;20114;-63
2023/05/22 11:51:08;;;;;;;27.15;18.33;;;23.70;99.90;;;;;;5090860;28;20493;-63
2023/05/22 11:53:34;;;;;;;27.40;19.27;;;23.80;99.90;;;;;;5091941;28;20040;-63
2023/05/22 11:56:06;;;;;;;26.25;18.85;;;24.00;99.90;;;;;;5090010;28;20204;-63
2023/05/22 11:58:32;;;;;;;23.73;18.83;;;24.20;99.90;;;;;;5100168;28;20058;-62
2023/05/22 12:01:02;;;;;;;24.08;17.48;;;24.30;99.90;;;;;;5092660;28;20036;-63
2023/05/22 12:03:29;;;;;;;22.65;17.65;;;24.40;99.90;;;;;;5091801;28;20036;-62
2023/05/22 12:05:55;;;;;;;21.88;17.55;;;24.50;99.90;;;;;;5100189;28;20043;-62
2023/05/22 12:08:25;;;;;;;19.80;15.95;;;24.50;99.90;;;;;;5103802;28;20524;-62
2023/05/22 12:10:52;;;;;;;22.10;16.35;;;24.60;99.90;;;;;;5097780;28;20036;-63
2023/05/22 12:13:35;;;;;;;19.88;15.93;;;24.80;99.90;;;;;;5086115;28;20098;-62
2023/05/22 12:16:01;;;;;;;21.30;16.10;;;24.90;99.90;;;;;;5070725;28;20045;-62
2023/05/22 12:18:35;;;;;;;22.55;16.45;;;25.00;99.90;;;;;;5070771;28;20043;-62
2023/05/22 12:21:05;;;;;;;21.67;16.33;;;25.00;99.90;;;;;;5076542;28;20043;-63
2023/05/22 12:23:30;;;;;;;22.33;16.38;;;25.00;99.90;;;;;;5084474;28;20050;-62
2023/05/22 12:25:58;;;;;;;21.52;15.32;;;25.00;99.90;;;;;;5088249;28;20401;-63
2023/05/22 12:28:24;;;;;;;18.17;15.52;;;25.10;99.90;;;;;;5102672;28;20532;-63
2023/05/22 12:30:54;;;;;;;21.90;15.82;;;25.10;99.90;;;;;;5094870;28;20064;-63